Map

Track Data

SID SEASON NUMBER BASIN SUBBASIN NAME ISO_TIME NATURE LAT LON WMO_WIND WMO_PRES WMO_AGENCY TRACK_TYPE DIST2LAND LANDFALL IFLAG USA_AGENCY USA_ATCF_ID USA_LAT USA_LON USA_RECORD USA_STATUS USA_WIND USA_PRES USA_SSHS USA_R34_NE USA_R34_SE USA_R34_SW USA_R34_NW USA_R50_NE USA_R50_SE USA_R50_SW USA_R50_NW USA_R64_NE USA_R64_SE USA_R64_SW USA_R64_NW USA_POCI USA_ROCI USA_RMW USA_EYE TOKYO_LAT TOKYO_LON TOKYO_GRADE TOKYO_WIND TOKYO_PRES TOKYO_R50_DIR TOKYO_R50_LONG TOKYO_R50_SHORT TOKYO_R30_DIR TOKYO_R30_LONG TOKYO_R30_SHORT TOKYO_LAND CMA_LAT CMA_LON CMA_CAT CMA_WIND CMA_PRES HKO_LAT HKO_LON HKO_CAT HKO_WIND HKO_PRES NEWDELHI_LAT NEWDELHI_LON NEWDELHI_GRADE NEWDELHI_WIND NEWDELHI_PRES NEWDELHI_CI NEWDELHI_DP NEWDELHI_POCI REUNION_LAT REUNION_LON REUNION_TYPE REUNION_WIND REUNION_PRES REUNION_TNUM REUNION_CI REUNION_RMW REUNION_R34_NE REUNION_R34_SE REUNION_R34_SW REUNION_R34_NW REUNION_R50_NE REUNION_R50_SE REUNION_R50_SW REUNION_R50_NW REUNION_R64_NE REUNION_R64_SE REUNION_R64_SW REUNION_R64_NW BOM_LAT BOM_LON BOM_TYPE BOM_WIND BOM_PRES BOM_TNUM BOM_CI BOM_RMW BOM_R34_NE BOM_R34_SE BOM_R34_SW BOM_R34_NW BOM_R50_NE BOM_R50_SE BOM_R50_SW BOM_R50_NW BOM_R64_NE BOM_R64_SE BOM_R64_SW BOM_R64_NW BOM_ROCI BOM_POCI BOM_EYE BOM_POS_METHOD BOM_PRES_METHOD NADI_LAT NADI_LON NADI_CAT NADI_WIND NADI_PRES WELLINGTON_LAT WELLINGTON_LON WELLINGTON_WIND WELLINGTON_PRES DS824_LAT DS824_LON DS824_STAGE DS824_WIND DS824_PRES TD9636_LAT TD9636_LON TD9636_STAGE TD9636_WIND TD9636_PRES TD9635_LAT TD9635_LON TD9635_WIND TD9635_PRES TD9635_ROCI NEUMANN_LAT NEUMANN_LON NEUMANN_CLASS NEUMANN_WIND NEUMANN_PRES MLC_LAT MLC_LON MLC_CLASS MLC_WIND MLC_PRES USA_GUST BOM_GUST BOM_GUST_PER REUNION_GUST REUNION_GUST_PER USA_SEAHGT USA_SEARAD_NE USA_SEARAD_SE USA_SEARAD_SW USA_SEARAD_NW STORM_SPEED STORM_DIR
1897011S13070 1897 2 SI MM NOT_NAMED 1897-01-11 00:00:00 TS -12.6000 70.2000 main 1575 1532 _________O____ -1 -12.6000 70.2000 TC 9 206
1897011S13070 1897 2 SI MM NOT_NAMED 1897-01-11 03:00:00 TS -13.0000 70.0026 main 1532 1489 _________P____ -1 -13.0000 70.0026 TC 9 206
1897011S13070 1897 2 SI MM NOT_NAMED 1897-01-11 06:00:00 TS -13.4000 69.8000 main 1489 1448 _________O____ -1 -13.4000 69.8000 TC 9 207
1897011S13070 1897 2 SI MM NOT_NAMED 1897-01-11 09:00:00 TS -13.8000 69.5925 main 1448 1407 _________P____ -1 -13.8000 69.5925 TC 9 206
1897011S13070 1897 2 SI MM NOT_NAMED 1897-01-11 12:00:00 TS -14.2000 69.4000 main 1407 1366 _________O____ -1 -14.2000 69.4000 TC 9 204
1897011S13070 1897 2 SI MM NOT_NAMED 1897-01-11 15:00:00 TS -14.6000 69.2275 main 1366 1335 _________P____ -1 -14.6000 69.2275 TC 9 200
1897011S13070 1897 2 SI MM NOT_NAMED 1897-01-11 18:00:00 TS -15.0000 69.1000 main 1335 1305 _________O____ -1 -15.0000 69.1000 TC 8 195
1897011S13070 1897 2 SI MM NOT_NAMED 1897-01-11 21:00:00 TS -15.3775 69.0200 main 1305 1286 _________P____ -1 -15.3775 69.0200 TC 8 187
1897011S13070 1897 2 SI MM NOT_NAMED 1897-01-12 00:00:00 TS -15.8000 69.0000 main 1286 1263 _________O____ -1 -15.8000 69.0000 TC 10 178
1897011S13070 1897 2 SI MM NOT_NAMED 1897-01-12 03:00:00 TS -16.3275 69.0275 main 1263 1249 _________P____ -1 -16.3275 69.0275 TC 11 175
1897011S13070 1897 2 SI MM NOT_NAMED 1897-01-12 06:00:00 TS -16.9000 69.1000 main 1249 1239 _________O____ -1 -16.9000 69.1000 TC 12 172
1897011S13070 1897 2 SI MM NOT_NAMED 1897-01-12 09:00:00 TS -17.4650 69.1850 main 1239 1230 _________P____ -1 -17.4650 69.1850 TC 11 170
1897011S13070 1897 2 SI MM NOT_NAMED 1897-01-12 12:00:00 TS -18.0000 69.3000 main 1234 1229 _________O____ -1 -18.0000 69.3000 TC 10 166
1897011S13070 1897 2 SI MM NOT_NAMED 1897-01-12 15:00:00 TS -18.4725 69.4425 main 1232 1232 _________P____ -1 -18.4725 69.4425 TC 9 162
1897011S13070 1897 2 SI MM NOT_NAMED 1897-01-12 18:00:00 TS -18.9000 69.6000 main 1245 1243 _________O____ -1 -18.9000 69.6000 TC 9 161
1897011S13070 1897 2 SI MM NOT_NAMED 1897-01-12 21:00:00 TS -19.2924 69.7353 main 1249 1249 _________P____ -1 -19.2924 69.7353 TC 9 161
1897011S13070 1897 2 SI MM NOT_NAMED 1897-01-13 00:00:00 TS -19.7000 69.9000 main 1265 1264 _________O____ -1 -19.7000 69.9000 TC 10 157
1897011S13070 1897 2 SI MM NOT_NAMED 1897-01-13 03:00:00 TS -20.1850 70.1350 main 1282 1282 _________P____ -1 -20.1850 70.1350 TC 11 155
1897011S13070 1897 2 SI MM NOT_NAMED 1897-01-13 06:00:00 TS -20.7000 70.4000 main 1312 1312 _________O____ -1 -20.7000 70.4000 TC 11 155
1897011S13070 1897 2 SI MM NOT_NAMED 1897-01-13 09:00:00 TS -21.2074 70.6427 main 1334 1334 _________P____ -1 -21.2074 70.6427 TC 11 155
1897011S13070 1897 2 SI MM NOT_NAMED 1897-01-13 12:00:00 TS -21.7000 70.9000 main 1368 1368 _________O____ -1 -21.7000 70.9000 TC 11 152
1897011S13070 1897 2 SI MM NOT_NAMED 1897-01-13 15:00:00 TS -22.1575 71.1927 main 1404 1404 _________P____ -1 -22.1575 71.1927 TC 11 148
1897011S13070 1897 2 SI MM NOT_NAMED 1897-01-13 18:00:00 TS -22.6000 71.5000 main 1440 1440 _________O____ -1 -22.6000 71.5000 TC 11 148
1897011S13070 1897 2 SI MM NOT_NAMED 1897-01-13 21:00:00 TS -23.0476 71.8021 main 1477 1477 _________P____ -1 -23.0476 71.8021 TC 11 148
1897011S13070 1897 2 SI MM NOT_NAMED 1897-01-14 00:00:00 TS -23.5000 72.1000 main 1516 _________O____ -1 -23.5000 72.1000 TC 11 149

About IBTrACS Database

This database is a web-friendly format of International Best Track Archive for Climate Stewardship (IBTrACS), a global best track data archive curated by NOAA dating back to 1842.

Updated: 2021-10-25